SBSL/SLZ METAR and TAF weather

Enter ICAO airport designator
Station Type Date Time Source
SBSL METAR 2022/01/25 04:00 UTC NOAA

SBSL 250400Z 03005KT 9999 SCT017 27/26 Q1011


Station Type Date Time Source
SBSL Decoded METAR 2022/01/25 04:00 UTC NOAA

Sao Luiz Aeroporto , Brazil (SBSL) 02-36S 044-14W 53M
Jan 24, 2022 - 11:00 PM EST / 2022.01.25 0400 UTC
Wind: from the NNE (030 degrees) at 6 MPH (5 KT):0
Visibility: greater than 7 mile(s):0
Sky conditions: partly cloudy
Temperature: 80 F (27 C)
Dew Point: 78 F (26 C)
Relative Humidity: 94%
Pressure (altimeter): 29.85 in. Hg (1011 hPa)
ob: SBSL 250400Z 03005KT 9999 SCT017 27/26 Q1011
cycle: 4

Station Type Date Time Source
SBSL TAF 2022/01/25 06:12 UTC NOAA

TAF SBSL 2506/2606 05010KT 9999 FEW020 TN26/2509Z TX32/2517Z
TEMPO 2515/2521 05015KT
TEMPO 2603/2606 5000 SHRA SCT020 FEW025TCU
RMK PGX

Example: see airport list